sensor_id;sensor_type;location;lat;lon;timestamp;P1;durP1;ratioP1;P2;durP2;ratioP2
69446;SDS011;56650;37.496;126.998;2022-07-06T00:01:33;11.15;;;7.35;;
69446;SDS011;56650;37.496;126.998;2022-07-06T00:06:25;15.80;;;7.35;;
69446;SDS011;56650;37.496;126.998;2022-07-06T00:08:51;11.82;;;7.60;;
69446;SDS011;56650;37.496;126.998;2022-07-06T00:11:18;12.05;;;7.93;;
69446;SDS011;56650;37.496;126.998;2022-07-06T00:13:44;12.25;;;8.20;;
69446;SDS011;56650;37.496;126.998;2022-07-06T00:16:10;10.77;;;7.28;;
69446;SDS011;56650;37.496;126.998;2022-07-06T00:18:36;13.85;;;8.15;;
69446;SDS011;56650;37.496;126.998;2022-07-06T00:21:03;12.25;;;7.85;;
69446;SDS011;56650;37.496;126.998;2022-07-06T00:23:29;12.23;;;7.40;;
69446;SDS011;56650;37.496;126.998;2022-07-06T00:25:55;12.65;;;7.35;;
69446;SDS011;56650;37.496;126.998;2022-07-06T00:28:21;11.50;;;7.63;;
69446;SDS011;56650;37.496;126.998;2022-07-06T00:30:48;11.73;;;7.68;;
69446;SDS011;56650;37.496;126.998;2022-07-06T00:33:14;10.35;;;6.88;;
69446;SDS011;56650;37.496;126.998;2022-07-06T00:35:40;10.85;;;7.40;;
69446;SDS011;56650;37.496;126.998;2022-07-06T00:38:06;10.23;;;7.10;;
69446;SDS011;56650;37.496;126.998;2022-07-06T00:40:33;11.65;;;7.45;;
69446;SDS011;56650;37.496;126.998;2022-07-06T00:42:59;12.00;;;7.78;;
69446;SDS011;56650;37.496;126.998;2022-07-06T00:45:25;14.20;;;7.93;;
69446;SDS011;56650;37.496;126.998;2022-07-06T00:47:52;11.35;;;7.55;;
69446;SDS011;56650;37.496;126.998;2022-07-06T00:50:18;11.48;;;8.00;;
69446;SDS011;56650;37.496;126.998;2022-07-06T00:52:48;13.32;;;8.27;;
69446;SDS011;56650;37.496;126.998;2022-07-06T00:55:15;13.18;;;8.95;;
69446;SDS011;56650;37.496;126.998;2022-07-06T00:57:42;13.05;;;8.65;;
69446;SDS011;56650;37.496;126.998;2022-07-06T01:00:12;13.48;;;8.13;;
69446;SDS011;56650;37.496;126.998;2022-07-06T01:02:39;12.27;;;7.47;;
69446;SDS011;56650;37.496;126.998;2022-07-06T01:05:05;11.38;;;7.18;;
69446;SDS011;56650;37.496;126.998;2022-07-06T01:07:32;10.45;;;7.20;;
69446;SDS011;56650;37.496;126.998;2022-07-06T01:09:59;10.77;;;7.07;;
69446;SDS011;56650;37.496;126.998;2022-07-06T01:12:26;11.75;;;7.50;;
69446;SDS011;56650;37.496;126.998;2022-07-06T01:14:52;12.38;;;7.63;;
69446;SDS011;56650;37.496;126.998;2022-07-06T01:17:19;15.10;;;8.30;;
69446;SDS011;56650;37.496;126.998;2022-07-06T01:19:45;12.80;;;8.70;;
69446;SDS011;56650;37.496;126.998;2022-07-06T01:22:11;14.05;;;9.07;;
69446;SDS011;56650;37.496;126.998;2022-07-06T01:24:38;15.90;;;9.93;;
69446;SDS011;56650;37.496;126.998;2022-07-06T01:27:04;14.75;;;9.82;;
69446;SDS011;56650;37.496;126.998;2022-07-06T01:31:56;16.15;;;8.98;;
69446;SDS011;56650;37.496;126.998;2022-07-06T01:34:22;12.57;;;8.95;;
69446;SDS011;56650;37.496;126.998;2022-07-06T01:36:48;11.30;;;8.10;;
69446;SDS011;56650;37.496;126.998;2022-07-06T01:39:15;12.18;;;7.85;;
69446;SDS011;56650;37.496;126.998;2022-07-06T01:41:41;11.90;;;7.45;;
69446;SDS011;56650;37.496;126.998;2022-07-06T01:44:07;10.93;;;7.10;;
69446;SDS011;56650;37.496;126.998;2022-07-06T01:46:34;11.15;;;7.45;;
69446;SDS011;56650;37.496;126.998;2022-07-06T01:49:00;11.25;;;7.30;;
69446;SDS011;56650;37.496;126.998;2022-07-06T01:51:27;9.65;;;6.35;;
69446;SDS011;56650;37.496;126.998;2022-07-06T01:53:53;10.55;;;6.93;;
69446;SDS011;56650;37.496;126.998;2022-07-06T01:56:19;9.23;;;6.93;;
69446;SDS011;56650;37.496;126.998;2022-07-06T02:01:13;10.73;;;6.72;;
69446;SDS011;56650;37.496;126.998;2022-07-06T02:03:39;10.15;;;6.65;;
69446;SDS011;56650;37.496;126.998;2022-07-06T02:06:06;9.60;;;6.43;;
69446;SDS011;56650;37.496;126.998;2022-07-06T02:08:33;9.75;;;6.50;;
69446;SDS011;56650;37.496;126.998;2022-07-06T02:11:00;9.63;;;6.75;;
69446;SDS011;56650;37.496;126.998;2022-07-06T02:13:26;10.70;;;7.22;;
69446;SDS011;56650;37.496;126.998;2022-07-06T02:15:53;10.13;;;6.45;;
69446;SDS011;56650;37.496;126.998;2022-07-06T02:18:19;11.23;;;6.93;;
69446;SDS011;56650;37.496;126.998;2022-07-06T02:20:45;9.57;;;6.68;;
69446;SDS011;56650;37.496;126.998;2022-07-06T02:23:11;10.38;;;6.45;;
69446;SDS011;56650;37.496;126.998;2022-07-06T02:25:38;9.88;;;6.88;;
69446;SDS011;56650;37.496;126.998;2022-07-06T02:28:04;10.45;;;6.53;;
69446;SDS011;56650;37.496;126.998;2022-07-06T02:30:30;10.50;;;6.82;;
69446;SDS011;56650;37.496;126.998;2022-07-06T02:32:56;9.27;;;6.15;;
69446;SDS011;56650;37.496;126.998;2022-07-06T02:35:23;9.68;;;6.57;;
69446;SDS011;56650;37.496;126.998;2022-07-06T02:37:52;10.98;;;6.97;;
69446;SDS011;56650;37.496;126.998;2022-07-06T02:40:18;9.05;;;6.30;;
69446;SDS011;56650;37.496;126.998;2022-07-06T02:42:44;9.77;;;6.38;;
69446;SDS011;56650;37.496;126.998;2022-07-06T02:45:10;11.38;;;7.30;;
69446;SDS011;56650;37.496;126.998;2022-07-06T02:47:37;9.65;;;6.30;;
69446;SDS011;56650;37.496;126.998;2022-07-06T02:52:29;10.98;;;6.78;;
69446;SDS011;56650;37.496;126.998;2022-07-06T02:54:55;10.52;;;6.78;;
69446;SDS011;56650;37.496;126.998;2022-07-06T02:57:21;12.65;;;7.47;;
69446;SDS011;56650;37.496;126.998;2022-07-06T02:59:48;12.02;;;8.18;;
69446;SDS011;56650;37.496;126.998;2022-07-06T03:02:18;12.95;;;8.50;;
69446;SDS011;56650;37.496;126.998;2022-07-06T03:04:44;13.60;;;8.73;;
69446;SDS011;56650;37.496;126.998;2022-07-06T03:07:11;14.43;;;9.52;;
69446;SDS011;56650;37.496;126.998;2022-07-06T03:09:37;13.43;;;9.13;;
69446;SDS011;56650;37.496;126.998;2022-07-06T03:12:03;15.23;;;10.00;;
69446;SDS011;56650;37.496;126.998;2022-07-06T03:14:29;14.27;;;8.95;;
69446;SDS011;56650;37.496;126.998;2022-07-06T03:16:56;16.95;;;10.45;;
69446;SDS011;56650;37.496;126.998;2022-07-06T03:19:22;16.08;;;10.00;;
69446;SDS011;56650;37.496;126.998;2022-07-06T03:21:48;15.40;;;10.30;;
69446;SDS011;56650;37.496;126.998;2022-07-06T03:24:14;14.70;;;9.95;;
69446;SDS011;56650;37.496;126.998;2022-07-06T03:26:41;15.10;;;10.65;;
69446;SDS011;56650;37.496;126.998;2022-07-06T03:29:08;15.18;;;10.60;;
69446;SDS011;56650;37.496;126.998;2022-07-06T03:31:34;17.33;;;10.43;;
69446;SDS011;56650;37.496;126.998;2022-07-06T03:34:00;17.67;;;10.02;;
69446;SDS011;56650;37.496;126.998;2022-07-06T03:36:26;17.50;;;10.48;;
69446;SDS011;56650;37.496;126.998;2022-07-06T03:38:53;14.90;;;10.13;;
69446;SDS011;56650;37.496;126.998;2022-07-06T03:41:19;15.73;;;10.18;;
69446;SDS011;56650;37.496;126.998;2022-07-06T03:43:45;16.83;;;9.57;;
69446;SDS011;56650;37.496;126.998;2022-07-06T03:46:11;17.33;;;9.98;;
69446;SDS011;56650;37.496;126.998;2022-07-06T03:48:38;14.90;;;9.35;;
69446;SDS011;56650;37.496;126.998;2022-07-06T03:51:04;21.77;;;10.73;;
69446;SDS011;56650;37.496;126.998;2022-07-06T03:53:31;18.25;;;9.02;;
69446;SDS011;56650;37.496;126.998;2022-07-06T03:55:57;21.23;;;10.75;;
69446;SDS011;56650;37.496;126.998;2022-07-06T03:58:42;18.40;;;9.95;;
69446;SDS011;56650;37.496;126.998;2022-07-06T04:03:35;24.83;;;10.70;;
69446;SDS011;56650;37.496;126.998;2022-07-06T04:06:02;21.45;;;9.85;;
69446;SDS011;56650;37.496;126.998;2022-07-06T04:08:28;20.25;;;9.55;;
69446;SDS011;56650;37.496;126.998;2022-07-06T04:10:54;19.42;;;9.77;;
69446;SDS011;56650;37.496;126.998;2022-07-06T04:13:21;19.20;;;8.82;;
69446;SDS011;56650;37.496;126.998;2022-07-06T04:15:47;29.45;;;9.88;;
69446;SDS011;56650;37.496;126.998;2022-07-06T04:18:13;20.58;;;9.23;;
69446;SDS011;56650;37.496;126.998;2022-07-06T04:20:39;16.35;;;9.07;;
69446;SDS011;56650;37.496;126.998;2022-07-06T04:23:06;17.00;;;9.30;;
69446;SDS011;56650;37.496;126.998;2022-07-06T04:25:32;13.93;;;8.13;;
69446;SDS011;56650;37.496;126.998;2022-07-06T04:27:58;18.40;;;8.90;;
69446;SDS011;56650;37.496;126.998;2022-07-06T04:30:24;18.27;;;9.35;;
69446;SDS011;56650;37.496;126.998;2022-07-06T04:32:51;13.88;;;8.63;;
69446;SDS011;56650;37.496;126.998;2022-07-06T04:35:17;16.52;;;8.93;;
69446;SDS011;56650;37.496;126.998;2022-07-06T04:37:43;17.85;;;9.07;;
69446;SDS011;56650;37.496;126.998;2022-07-06T04:40:11;17.45;;;8.85;;
69446;SDS011;56650;37.496;126.998;2022-07-06T04:42:38;18.52;;;9.68;;
69446;SDS011;56650;37.496;126.998;2022-07-06T04:45:04;16.55;;;9.38;;
69446;SDS011;56650;37.496;126.998;2022-07-06T04:47:30;16.08;;;9.38;;
69446;SDS011;56650;37.496;126.998;2022-07-06T04:49:57;14.38;;;8.32;;
69446;SDS011;56650;37.496;126.998;2022-07-06T04:52:23;14.38;;;8.60;;
69446;SDS011;56650;37.496;126.998;2022-07-06T04:54:49;16.58;;;8.75;;
69446;SDS011;56650;37.496;126.998;2022-07-06T04:57:15;16.98;;;8.95;;
69446;SDS011;56650;37.496;126.998;2022-07-06T04:59:42;15.18;;;8.93;;
69446;SDS011;56650;37.496;126.998;2022-07-06T05:02:08;16.00;;;8.50;;
69446;SDS011;56650;37.496;126.998;2022-07-06T05:04:34;13.02;;;8.60;;
69446;SDS011;56650;37.496;126.998;2022-07-06T05:07:00;15.27;;;8.38;;
69446;SDS011;56650;37.496;126.998;2022-07-06T05:09:27;14.43;;;8.95;;
69446;SDS011;56650;37.496;126.998;2022-07-06T05:11:53;13.48;;;8.65;;
69446;SDS011;56650;37.496;126.998;2022-07-06T05:14:19;14.40;;;9.82;;
69446;SDS011;56650;37.496;126.998;2022-07-06T05:16:45;13.93;;;8.52;;
69446;SDS011;56650;37.496;126.998;2022-07-06T05:19:12;13.60;;;8.82;;
69446;SDS011;56650;37.496;126.998;2022-07-06T05:21:38;14.70;;;8.70;;
69446;SDS011;56650;37.496;126.998;2022-07-06T05:24:04;14.82;;;8.82;;
69446;SDS011;56650;37.496;126.998;2022-07-06T05:26:31;12.18;;;8.48;;
69446;SDS011;56650;37.496;126.998;2022-07-06T05:28:57;13.32;;;7.90;;
69446;SDS011;56650;37.496;126.998;2022-07-06T05:31:23;12.20;;;8.00;;
69446;SDS011;56650;37.496;126.998;2022-07-06T05:33:49;14.02;;;8.73;;
69446;SDS011;56650;37.496;126.998;2022-07-06T05:36:16;12.35;;;8.23;;
69446;SDS011;56650;37.496;126.998;2022-07-06T05:38:42;11.23;;;7.65;;
69446;SDS011;56650;37.496;126.998;2022-07-06T05:41:08;13.32;;;8.05;;
69446;SDS011;56650;37.496;126.998;2022-07-06T05:43:35;13.55;;;8.80;;
69446;SDS011;56650;37.496;126.998;2022-07-06T05:46:02;13.90;;;8.38;;
69446;SDS011;56650;37.496;126.998;2022-07-06T05:48:28;13.45;;;8.45;;
69446;SDS011;56650;37.496;126.998;2022-07-06T05:51:12;12.02;;;7.80;;
69446;SDS011;56650;37.496;126.998;2022-07-06T05:53:38;13.30;;;8.13;;
69446;SDS011;56650;37.496;126.998;2022-07-06T05:56:05;11.82;;;8.05;;
69446;SDS011;56650;37.496;126.998;2022-07-06T06:00:57;13.13;;;8.02;;
69446;SDS011;56650;37.496;126.998;2022-07-06T06:03:23;11.70;;;7.90;;
69446;SDS011;56650;37.496;126.998;2022-07-06T06:05:49;13.95;;;7.82;;
69446;SDS011;56650;37.496;126.998;2022-07-06T06:08:16;11.95;;;7.57;;
69446;SDS011;56650;37.496;126.998;2022-07-06T06:10:42;12.15;;;7.93;;
69446;SDS011;56650;37.496;126.998;2022-07-06T06:13:08;12.80;;;7.97;;
69446;SDS011;56650;37.496;126.998;2022-07-06T06:15:34;10.75;;;7.15;;
69446;SDS011;56650;37.496;126.998;2022-07-06T06:18:01;11.70;;;7.72;;
69446;SDS011;56650;37.496;126.998;2022-07-06T06:20:29;11.80;;;7.20;;
69446;SDS011;56650;37.496;126.998;2022-07-06T06:22:56;11.07;;;7.25;;
69446;SDS011;56650;37.496;126.998;2022-07-06T06:25:30;10.70;;;7.55;;
69446;SDS011;56650;37.496;126.998;2022-07-06T06:27:57;10.82;;;7.15;;
69446;SDS011;56650;37.496;126.998;2022-07-06T06:30:23;13.40;;;7.82;;
69446;SDS011;56650;37.496;126.998;2022-07-06T06:32:49;12.38;;;8.18;;
69446;SDS011;56650;37.496;126.998;2022-07-06T06:35:15;12.35;;;8.15;;
69446;SDS011;56650;37.496;126.998;2022-07-06T06:37:42;11.73;;;7.30;;
69446;SDS011;56650;37.496;126.998;2022-07-06T06:40:08;13.00;;;7.95;;
69446;SDS011;56650;37.496;126.998;2022-07-06T06:42:38;15.45;;;9.63;;
69446;SDS011;56650;37.496;126.998;2022-07-06T06:45:04;14.77;;;10.32;;
69446;SDS011;56650;37.496;126.998;2022-07-06T06:47:31;15.52;;;10.50;;
69446;SDS011;56650;37.496;126.998;2022-07-06T06:49:57;14.80;;;10.50;;
69446;SDS011;56650;37.496;126.998;2022-07-06T06:52:23;12.23;;;8.98;;
69446;SDS011;56650;37.496;126.998;2022-07-06T06:54:49;12.15;;;8.65;;
69446;SDS011;56650;37.496;126.998;2022-07-06T06:57:16;12.85;;;8.65;;
69446;SDS011;56650;37.496;126.998;2022-07-06T06:59:42;10.77;;;7.95;;
69446;SDS011;56650;37.496;126.998;2022-07-06T07:02:08;11.73;;;8.13;;
69446;SDS011;56650;37.496;126.998;2022-07-06T07:04:34;11.93;;;7.93;;
69446;SDS011;56650;37.496;126.998;2022-07-06T07:07:01;12.98;;;7.40;;
69446;SDS011;56650;37.496;126.998;2022-07-06T07:09:27;10.75;;;7.30;;
69446;SDS011;56650;37.496;126.998;2022-07-06T07:11:53;10.38;;;7.45;;
69446;SDS011;56650;37.496;126.998;2022-07-06T07:14:20;12.27;;;7.65;;
69446;SDS011;56650;37.496;126.998;2022-07-06T07:16:46;11.27;;;7.22;;
69446;SDS011;56650;37.496;126.998;2022-07-06T07:19:13;11.70;;;7.03;;
69446;SDS011;56650;37.496;126.998;2022-07-06T07:21:39;10.93;;;7.00;;
69446;SDS011;56650;37.496;126.998;2022-07-06T07:24:05;10.13;;;6.88;;
69446;SDS011;56650;37.496;126.998;2022-07-06T07:26:33;11.18;;;7.50;;
69446;SDS011;56650;37.496;126.998;2022-07-06T07:28:59;10.15;;;7.60;;
69446;SDS011;56650;37.496;126.998;2022-07-06T07:31:25;10.88;;;6.95;;
69446;SDS011;56650;37.496;126.998;2022-07-06T07:33:51;10.70;;;7.22;;
69446;SDS011;56650;37.496;126.998;2022-07-06T07:36:19;9.45;;;7.07;;
69446;SDS011;56650;37.496;126.998;2022-07-06T07:38:45;11.25;;;7.13;;
69446;SDS011;56650;37.496;126.998;2022-07-06T07:41:11;11.02;;;7.03;;
69446;SDS011;56650;37.496;126.998;2022-07-06T07:43:39;9.63;;;6.38;;
69446;SDS011;56650;37.496;126.998;2022-07-06T07:46:05;10.15;;;6.97;;
69446;SDS011;56650;37.496;126.998;2022-07-06T07:48:32;11.27;;;6.70;;
69446;SDS011;56650;37.496;126.998;2022-07-06T07:50:58;10.85;;;7.00;;
69446;SDS011;56650;37.496;126.998;2022-07-06T07:53:24;9.63;;;6.80;;
69446;SDS011;56650;37.496;126.998;2022-07-06T07:55:50;11.68;;;8.18;;
69446;SDS011;56650;37.496;126.998;2022-07-06T07:58:17;14.10;;;9.52;;
69446;SDS011;56650;37.496;126.998;2022-07-06T08:00:43;14.57;;;9.98;;
69446;SDS011;56650;37.496;126.998;2022-07-06T08:03:09;13.98;;;9.73;;
69446;SDS011;56650;37.496;126.998;2022-07-06T08:05:36;15.25;;;10.80;;
69446;SDS011;56650;37.496;126.998;2022-07-06T08:08:02;13.90;;;9.90;;
69446;SDS011;56650;37.496;126.998;2022-07-06T08:10:29;15.65;;;10.32;;
69446;SDS011;56650;37.496;126.998;2022-07-06T08:12:56;16.35;;;11.27;;
69446;SDS011;56650;37.496;126.998;2022-07-06T08:17:48;14.93;;;11.30;;
69446;SDS011;56650;37.496;126.998;2022-07-06T08:20:14;16.23;;;11.40;;
69446;SDS011;56650;37.496;126.998;2022-07-06T08:25:06;15.93;;;11.30;;
69446;SDS011;56650;37.496;126.998;2022-07-06T08:27:33;14.95;;;11.13;;
69446;SDS011;56650;37.496;126.998;2022-07-06T08:32:26;13.85;;;10.20;;
69446;SDS011;56650;37.496;126.998;2022-07-06T08:34:52;12.27;;;9.82;;
69446;SDS011;56650;37.496;126.998;2022-07-06T08:37:18;12.98;;;10.10;;
69446;SDS011;56650;37.496;126.998;2022-07-06T08:39:45;13.07;;;9.50;;
69446;SDS011;56650;37.496;126.998;2022-07-06T08:44:37;10.13;;;7.63;;
69446;SDS011;56650;37.496;126.998;2022-07-06T08:47:06;10.32;;;7.68;;
69446;SDS011;56650;37.496;126.998;2022-07-06T08:49:33;10.10;;;7.80;;
69446;SDS011;56650;37.496;126.998;2022-07-06T08:52:00;10.88;;;7.75;;
69446;SDS011;56650;37.496;126.998;2022-07-06T08:54:28;13.45;;;8.35;;
69446;SDS011;56650;37.496;126.998;2022-07-06T08:56:54;9.32;;;7.40;;
69446;SDS011;56650;37.496;126.998;2022-07-06T08:59:21;9.20;;;6.72;;
69446;SDS011;56650;37.496;126.998;2022-07-06T09:04:17;9.95;;;7.45;;
69446;SDS011;56650;37.496;126.998;2022-07-06T09:06:45;9.18;;;6.72;;
69446;SDS011;56650;37.496;126.998;2022-07-06T09:09:13;8.73;;;6.13;;
69446;SDS011;56650;37.496;126.998;2022-07-06T09:11:42;8.65;;;6.22;;
69446;SDS011;56650;37.496;126.998;2022-07-06T09:14:09;9.35;;;6.18;;
69446;SDS011;56650;37.496;126.998;2022-07-06T09:16:35;10.90;;;7.00;;
69446;SDS011;56650;37.496;126.998;2022-07-06T09:19:01;8.57;;;5.75;;
69446;SDS011;56650;37.496;126.998;2022-07-06T09:24:00;8.82;;;6.15;;
69446;SDS011;56650;37.496;126.998;2022-07-06T09:26:30;8.55;;;5.70;;
69446;SDS011;56650;37.496;126.998;2022-07-06T09:28:56;9.32;;;5.93;;
69446;SDS011;56650;37.496;126.998;2022-07-06T09:31:23;8.57;;;5.60;;
69446;SDS011;56650;37.496;126.998;2022-07-06T09:33:59;7.47;;;5.45;;
69446;SDS011;56650;37.496;126.998;2022-07-06T09:36:37;7.57;;;4.88;;
69446;SDS011;56650;37.496;126.998;2022-07-06T09:41:42;7.32;;;4.82;;
69446;SDS011;56650;37.496;126.998;2022-07-06T09:44:09;7.32;;;4.55;;
69446;SDS011;56650;37.496;126.998;2022-07-06T09:46:42;8.07;;;5.28;;
69446;SDS011;56650;37.496;126.998;2022-07-06T09:49:08;7.93;;;5.45;;
69446;SDS011;56650;37.496;126.998;2022-07-06T09:51:35;8.07;;;5.15;;
69446;SDS011;56650;37.496;126.998;2022-07-06T09:54:10;7.93;;;5.03;;
69446;SDS011;56650;37.496;126.998;2022-07-06T09:56:40;9.25;;;5.55;;
69446;SDS011;56650;37.496;126.998;2022-07-06T09:59:08;8.65;;;5.65;;
69446;SDS011;56650;37.496;126.998;2022-07-06T10:01:35;8.23;;;5.63;;
69446;SDS011;56650;37.496;126.998;2022-07-06T10:04:02;9.40;;;6.63;;
69446;SDS011;56650;37.496;126.998;2022-07-06T10:06:29;10.45;;;6.85;;
69446;SDS011;56650;37.496;126.998;2022-07-06T10:08:55;8.77;;;6.13;;
69446;SDS011;56650;37.496;126.998;2022-07-06T10:11:24;9.93;;;6.90;;
69446;SDS011;56650;37.496;126.998;2022-07-06T10:13:50;9.48;;;6.03;;
69446;SDS011;56650;37.496;126.998;2022-07-06T10:16:18;9.70;;;6.85;;
69446;SDS011;56650;37.496;126.998;2022-07-06T10:18:45;9.93;;;6.85;;
69446;SDS011;56650;37.496;126.998;2022-07-06T10:21:11;9.93;;;7.10;;
69446;SDS011;56650;37.496;126.998;2022-07-06T10:23:38;10.45;;;7.10;;
69446;SDS011;56650;37.496;126.998;2022-07-06T10:26:04;9.75;;;6.95;;
69446;SDS011;56650;37.496;126.998;2022-07-06T10:28:32;9.65;;;6.15;;
69446;SDS011;56650;37.496;126.998;2022-07-06T10:30:58;10.23;;;6.72;;
69446;SDS011;56650;37.496;126.998;2022-07-06T10:35:50;10.40;;;6.90;;
69446;SDS011;56650;37.496;126.998;2022-07-06T10:38:17;10.27;;;7.07;;
69446;SDS011;56650;37.496;126.998;2022-07-06T10:40:44;9.07;;;6.78;;
69446;SDS011;56650;37.496;126.998;2022-07-06T10:46:05;10.80;;;7.35;;
69446;SDS011;56650;37.496;126.998;2022-07-06T10:48:35;9.20;;;6.53;;
69446;SDS011;56650;37.496;126.998;2022-07-06T10:51:02;10.15;;;7.47;;
69446;SDS011;56650;37.496;126.998;2022-07-06T10:53:33;10.57;;;7.60;;
69446;SDS011;56650;37.496;126.998;2022-07-06T10:56:01;10.13;;;7.03;;
69446;SDS011;56650;37.496;126.998;2022-07-06T10:58:35;9.35;;;6.68;;
69446;SDS011;56650;37.496;126.998;2022-07-06T11:01:01;11.00;;;7.70;;
69446;SDS011;56650;37.496;126.998;2022-07-06T11:05:57;11.85;;;7.60;;
69446;SDS011;56650;37.496;126.998;2022-07-06T11:08:40;11.00;;;7.90;;
69446;SDS011;56650;37.496;126.998;2022-07-06T11:11:16;12.23;;;7.70;;
69446;SDS011;56650;37.496;126.998;2022-07-06T11:16:16;11.30;;;7.82;;
69446;SDS011;56650;37.496;126.998;2022-07-06T11:18:46;13.25;;;8.73;;
69446;SDS011;56650;37.496;126.998;2022-07-06T11:21:23;11.40;;;8.50;;
69446;SDS011;56650;37.496;126.998;2022-07-06T11:23:57;11.40;;;7.97;;
69446;SDS011;56650;37.496;126.998;2022-07-06T11:26:24;11.50;;;8.15;;
69446;SDS011;56650;37.496;126.998;2022-07-06T11:31:16;11.32;;;8.40;;
69446;SDS011;56650;37.496;126.998;2022-07-06T11:33:44;12.10;;;8.20;;
69446;SDS011;56650;37.496;126.998;2022-07-06T11:36:17;12.55;;;9.20;;
69446;SDS011;56650;37.496;126.998;2022-07-06T11:38:44;12.55;;;8.35;;
69446;SDS011;56650;37.496;126.998;2022-07-06T11:41:11;11.63;;;8.70;;
69446;SDS011;56650;37.496;126.998;2022-07-06T11:43:39;12.02;;;8.80;;
69446;SDS011;56650;37.496;126.998;2022-07-06T11:46:21;12.18;;;8.82;;
69446;SDS011;56650;37.496;126.998;2022-07-06T11:51:13;12.65;;;9.00;;
69446;SDS011;56650;37.496;126.998;2022-07-06T11:53:44;11.68;;;8.45;;
69446;SDS011;56650;37.496;126.998;2022-07-06T11:56:11;11.95;;;8.52;;
69446;SDS011;56650;37.496;126.998;2022-07-06T11:58:39;12.40;;;9.30;;
69446;SDS011;56650;37.496;126.998;2022-07-06T12:01:11;11.63;;;8.95;;
69446;SDS011;56650;37.496;126.998;2022-07-06T12:03:37;12.68;;;9.07;;
69446;SDS011;56650;37.496;126.998;2022-07-06T12:06:04;12.23;;;8.80;;
69446;SDS011;56650;37.496;126.998;2022-07-06T12:08:31;11.77;;;8.80;;
69446;SDS011;56650;37.496;126.998;2022-07-06T12:10:59;12.75;;;8.77;;
69446;SDS011;56650;37.496;126.998;2022-07-06T12:13:26;11.80;;;8.80;;
69446;SDS011;56650;37.496;126.998;2022-07-06T12:18:18;12.25;;;8.50;;
69446;SDS011;56650;37.496;126.998;2022-07-06T12:20:44;12.90;;;9.80;;
69446;SDS011;56650;37.496;126.998;2022-07-06T12:23:10;12.30;;;9.00;;
69446;SDS011;56650;37.496;126.998;2022-07-06T12:25:36;12.93;;;9.00;;
69446;SDS011;56650;37.496;126.998;2022-07-06T12:30:28;11.95;;;8.98;;
69446;SDS011;56650;37.496;126.998;2022-07-06T12:35:20;12.07;;;8.77;;
69446;SDS011;56650;37.496;126.998;2022-07-06T12:37:55;12.68;;;8.73;;
69446;SDS011;56650;37.496;126.998;2022-07-06T12:40:24;13.32;;;9.23;;
69446;SDS011;56650;37.496;126.998;2022-07-06T12:42:52;10.98;;;8.48;;
69446;SDS011;56650;37.496;126.998;2022-07-06T12:45:18;13.18;;;9.13;;
69446;SDS011;56650;37.496;126.998;2022-07-06T12:47:57;11.60;;;9.15;;
69446;SDS011;56650;37.496;126.998;2022-07-06T12:52:59;12.18;;;9.25;;
69446;SDS011;56650;37.496;126.998;2022-07-06T12:55:26;11.88;;;8.77;;
69446;SDS011;56650;37.496;126.998;2022-07-06T12:57:52;13.18;;;9.63;;
69446;SDS011;56650;37.496;126.998;2022-07-06T13:02:46;12.35;;;9.13;;
69446;SDS011;56650;37.496;126.998;2022-07-06T13:05:14;13.77;;;9.45;;
69446;SDS011;56650;37.496;126.998;2022-07-06T13:07:45;11.23;;;8.35;;
69446;SDS011;56650;37.496;126.998;2022-07-06T13:10:12;12.38;;;9.57;;
69446;SDS011;56650;37.496;126.998;2022-07-06T13:12:39;12.80;;;9.43;;
69446;SDS011;56650;37.496;126.998;2022-07-06T13:15:06;13.15;;;9.07;;
69446;SDS011;56650;37.496;126.998;2022-07-06T13:17:33;11.52;;;8.23;;
69446;SDS011;56650;37.496;126.998;2022-07-06T13:19:59;12.02;;;8.77;;
69446;SDS011;56650;37.496;126.998;2022-07-06T13:22:25;12.63;;;9.60;;
69446;SDS011;56650;37.496;126.998;2022-07-06T13:24:52;11.63;;;8.45;;
69446;SDS011;56650;37.496;126.998;2022-07-06T13:27:18;13.45;;;9.23;;
69446;SDS011;56650;37.496;126.998;2022-07-06T13:29:44;11.65;;;8.77;;
69446;SDS011;56650;37.496;126.998;2022-07-06T13:32:10;11.00;;;8.40;;
69446;SDS011;56650;37.496;126.998;2022-07-06T13:34:37;12.18;;;9.35;;
69446;SDS011;56650;37.496;126.998;2022-07-06T13:37:03;12.15;;;8.98;;
69446;SDS011;56650;37.496;126.998;2022-07-06T13:39:30;12.02;;;8.32;;
69446;SDS011;56650;37.496;126.998;2022-07-06T13:41:57;11.98;;;8.93;;
69446;SDS011;56650;37.496;126.998;2022-07-06T13:44:23;11.65;;;8.77;;
69446;SDS011;56650;37.496;126.998;2022-07-06T13:46:50;11.82;;;8.18;;
69446;SDS011;56650;37.496;126.998;2022-07-06T13:49:16;11.82;;;8.27;;
69446;SDS011;56650;37.496;126.998;2022-07-06T13:51:43;11.40;;;7.95;;
69446;SDS011;56650;37.496;126.998;2022-07-06T13:56:36;13.02;;;8.48;;
69446;SDS011;56650;37.496;126.998;2022-07-06T13:59:02;11.13;;;7.97;;
69446;SDS011;56650;37.496;126.998;2022-07-06T14:01:29;11.43;;;8.65;;
69446;SDS011;56650;37.496;126.998;2022-07-06T14:03:55;12.77;;;8.82;;
69446;SDS011;56650;37.496;126.998;2022-07-06T14:06:21;10.60;;;7.50;;
69446;SDS011;56650;37.496;126.998;2022-07-06T14:08:48;10.52;;;8.02;;
69446;SDS011;56650;37.496;126.998;2022-07-06T14:11:14;11.57;;;7.72;;
69446;SDS011;56650;37.496;126.998;2022-07-06T14:13:40;12.25;;;8.15;;
69446;SDS011;56650;37.496;126.998;2022-07-06T14:16:06;12.60;;;8.45;;
69446;SDS011;56650;37.496;126.998;2022-07-06T14:18:33;11.27;;;7.82;;
69446;SDS011;56650;37.496;126.998;2022-07-06T14:20:59;9.95;;;7.30;;
69446;SDS011;56650;37.496;126.998;2022-07-06T14:23:29;11.02;;;8.00;;
69446;SDS011;56650;37.496;126.998;2022-07-06T14:25:55;10.95;;;7.88;;
69446;SDS011;56650;37.496;126.998;2022-07-06T14:28:22;13.15;;;8.30;;
69446;SDS011;56650;37.496;126.998;2022-07-06T14:30:48;10.82;;;7.63;;
69446;SDS011;56650;37.496;126.998;2022-07-06T14:33:14;10.43;;;7.20;;
69446;SDS011;56650;37.496;126.998;2022-07-06T14:35:44;10.77;;;7.45;;
69446;SDS011;56650;37.496;126.998;2022-07-06T14:38:13;9.63;;;6.90;;
69446;SDS011;56650;37.496;126.998;2022-07-06T14:40:39;10.27;;;6.97;;
69446;SDS011;56650;37.496;126.998;2022-07-06T14:43:06;11.50;;;7.43;;
69446;SDS011;56650;37.496;126.998;2022-07-06T14:45:32;10.63;;;7.40;;
69446;SDS011;56650;37.496;126.998;2022-07-06T14:47:58;9.82;;;7.05;;
69446;SDS011;56650;37.496;126.998;2022-07-06T14:50:25;10.00;;;7.18;;
69446;SDS011;56650;37.496;126.998;2022-07-06T14:52:52;9.57;;;6.85;;
69446;SDS011;56650;37.496;126.998;2022-07-06T14:55:18;9.73;;;6.90;;
69446;SDS011;56650;37.496;126.998;2022-07-06T15:00:10;9.82;;;6.50;;
69446;SDS011;56650;37.496;126.998;2022-07-06T15:02:37;10.50;;;7.40;;
69446;SDS011;56650;37.496;126.998;2022-07-06T15:05:03;10.00;;;6.80;;
69446;SDS011;56650;37.496;126.998;2022-07-06T15:09:55;10.57;;;7.43;;
69446;SDS011;56650;37.496;126.998;2022-07-06T15:12:22;10.48;;;6.95;;
69446;SDS011;56650;37.496;126.998;2022-07-06T15:14:48;9.00;;;6.55;;
69446;SDS011;56650;37.496;126.998;2022-07-06T15:17:14;9.52;;;6.35;;